createdAt,value
2023-01-11T00:00:48.096Z,100247.19
2023-01-11T00:03:15.290Z,100264.69
2023-01-11T00:05:43.550Z,100261.44
2023-01-11T00:08:10.550Z,100270.38
2023-01-11T00:10:37.636Z,100257.66
2023-01-11T00:13:04.800Z,100263.97
2023-01-11T00:15:32.191Z,100257.47
2023-01-11T00:17:58.940Z,100272.94
2023-01-11T00:20:25.911Z,100260.88
2023-01-11T00:22:52.871Z,100261.72
2023-01-11T00:25:19.843Z,100267.09
2023-01-11T00:27:49.550Z,100259.94
2023-01-11T00:30:18.130Z,100252.03
2023-01-11T00:32:44.884Z,100261.34
2023-01-11T00:35:12.020Z,100262.13
2023-01-11T00:37:39.311Z,100268.13
2023-01-11T00:43:13.561Z,100257.28
2023-01-11T00:45:59.579Z,100251.50
2023-01-11T00:48:26.480Z,100266.31
2023-01-11T00:50:56.888Z,100275.09
2023-01-11T00:53:23.653Z,100269.34
2023-01-11T00:55:50.544Z,100292.66
2023-01-11T00:58:17.463Z,100306.09
2023-01-11T01:00:44.362Z,100301.28
2023-01-11T01:03:11.245Z,100271.03
2023-01-11T01:05:39.073Z,100256.78
2023-01-11T01:08:06.419Z,100253.84
2023-01-11T01:10:33.750Z,100300.84
2023-01-11T01:13:19.438Z,100301.53
2023-01-11T01:15:46.316Z,100297.06
2023-01-11T01:18:13.089Z,100275.59
2023-01-11T01:20:40.323Z,100303.69
2023-01-11T01:23:07.120Z,100259.97
2023-01-11T01:25:37.097Z,100300.81
2023-01-11T01:28:03.985Z,100262.84
2023-01-11T01:30:30.859Z,100312.69
2023-01-11T01:32:57.684Z,100296.50
2023-01-11T01:35:24.412Z,100298.50
2023-01-11T01:37:51.224Z,100282.63
2023-01-11T01:40:18.053Z,100285.81
2023-01-11T01:42:44.978Z,100278.00
2023-01-11T01:45:23.939Z,100316.19
2023-01-11T01:47:54.028Z,100312.78
2023-01-11T01:50:35.180Z,100318.09
2023-01-11T01:53:11.612Z,100253.75
2023-01-11T01:55:43.413Z,100315.63
2023-01-11T01:58:14.317Z,100305.53
2023-01-11T02:00:45.689Z,100334.94
2023-01-11T02:03:17.531Z,100338.91
2023-01-11T02:05:45.140Z,100311.00
2023-01-11T02:08:22.790Z,100326.81
2023-01-11T02:10:50.769Z,100345.69
2023-01-11T02:13:17.520Z,100351.59
2023-01-11T02:15:44.460Z,100344.16
2023-01-11T02:18:13.511Z,100327.66
2023-01-11T02:21:07.282Z,100357.41
2023-01-11T02:24:08.257Z,100335.09
2023-01-11T02:26:50.337Z,100364.81
2023-01-11T02:29:50.242Z,100396.66
2023-01-11T02:32:29.298Z,100372.94
2023-01-11T02:35:26.650Z,100343.63
2023-01-11T02:38:18.587Z,100352.56
2023-01-11T02:40:57.742Z,100332.53
2023-01-11T02:44:00.021Z,100346.00
2023-01-11T02:46:48.746Z,100342.13
2023-01-11T02:49:30.762Z,100330.22
2023-01-11T02:52:13.091Z,100329.63
2023-01-11T02:54:43.991Z,100314.91
2023-01-11T02:57:12.492Z,100360.75
2023-01-11T02:59:41.101Z,100364.59
2023-01-11T03:02:07.944Z,100357.97
2023-01-11T03:04:37.589Z,100355.31
2023-01-11T03:07:18.328Z,100356.06
2023-01-11T03:10:19.126Z,100361.41
2023-01-11T03:13:23.118Z,100366.47
2023-01-11T03:16:01.935Z,100365.63
2023-01-11T03:18:46.439Z,100363.09
2023-01-11T03:21:28.118Z,100355.81
2023-01-11T03:24:00.799Z,100357.31
2023-01-11T03:26:48.269Z,100322.94
2023-01-11T03:29:45.065Z,100336.91
2023-01-11T03:32:22.633Z,100346.19
2023-01-11T03:35:01.823Z,100354.84
2023-01-11T03:37:42.127Z,100330.03
2023-01-11T03:40:17.454Z,100329.03
2023-01-11T03:43:07.529Z,100331.78
2023-01-11T03:45:38.326Z,100328.31
2023-01-11T03:48:10.030Z,100306.72
2023-01-11T03:50:37.031Z,100305.03
2023-01-11T03:53:07.386Z,100323.13
2023-01-11T03:55:41.742Z,100322.41
2023-01-11T03:58:09.298Z,100341.53
2023-01-11T04:00:38.483Z,100332.94
2023-01-11T04:03:05.819Z,100308.06
2023-01-11T04:05:36.172Z,100338.13
2023-01-11T04:08:02.980Z,100314.88
2023-01-11T04:10:29.768Z,100331.06
2023-01-11T04:12:57.318Z,100328.75
2023-01-11T04:15:24.098Z,100304.50
2023-01-11T04:17:50.866Z,100317.84
2023-01-11T04:20:17.804Z,100307.31
2023-01-11T04:22:44.557Z,100278.50
2023-01-11T04:25:11.342Z,100274.19
2023-01-11T04:27:38.579Z,100299.88
2023-01-11T04:30:06.093Z,100266.25
2023-01-11T04:32:33.003Z,100295.66
2023-01-11T04:34:59.918Z,100303.16
2023-01-11T04:37:26.724Z,100235.75
2023-01-11T04:39:53.502Z,100291.69
2023-01-11T04:42:20.369Z,100282.50
2023-01-11T04:44:49.156Z,100278.19
2023-01-11T04:47:17.363Z,100274.69
2023-01-11T04:49:45.085Z,100248.47
2023-01-11T04:52:13.919Z,100268.72
2023-01-11T04:54:41.413Z,100309.22
2023-01-11T04:57:13.163Z,100283.47
2023-01-11T04:59:40.534Z,100330.72
2023-01-11T05:02:07.383Z,100299.38
2023-01-11T05:04:35.228Z,100328.41
2023-01-11T05:07:02.235Z,100313.47
2023-01-11T05:09:29.158Z,100308.69
2023-01-11T05:11:55.981Z,100307.69
2023-01-11T05:14:22.964Z,100307.91
2023-01-11T05:16:49.858Z,100250.50
2023-01-11T05:19:17.561Z,100302.22
2023-01-11T05:21:44.363Z,100280.31
2023-01-11T05:24:14.441Z,100269.44
2023-01-11T05:26:43.600Z,100281.50
2023-01-11T05:29:13.475Z,100235.31
2023-01-11T05:31:41.235Z,100311.19
2023-01-11T05:34:10.212Z,100305.44
2023-01-11T05:36:38.270Z,100293.94
2023-01-11T05:39:06.185Z,100300.53
2023-01-11T05:41:33.271Z,100275.66
2023-01-11T05:44:18.759Z,100255.00
2023-01-11T05:46:45.681Z,100253.00
2023-01-11T05:49:14.262Z,100279.19
2023-01-11T05:51:42.683Z,100258.56
2023-01-11T05:54:14.821Z,100262.44
2023-01-11T05:56:45.135Z,100301.28
2023-01-11T05:59:12.221Z,100276.66
2023-01-11T06:01:39.819Z,100258.22
2023-01-11T06:04:08.651Z,100249.78
2023-01-11T06:06:37.657Z,100269.75
2023-01-11T06:09:04.631Z,100298.31
2023-01-11T06:11:31.703Z,100254.09
2023-01-11T06:13:58.523Z,100269.13
2023-01-11T06:16:25.428Z,100298.03
2023-01-11T06:18:53.703Z,100286.84
2023-01-11T06:21:21.351Z,100289.53
2023-01-11T06:23:51.184Z,100292.28
2023-01-11T06:26:20.625Z,100293.25
2023-01-11T06:28:48.077Z,100299.06
2023-01-11T06:31:17.400Z,100294.66
2023-01-11T06:33:46.010Z,100302.25
2023-01-11T06:36:14.303Z,100303.78
2023-01-11T06:38:41.891Z,100270.91
2023-01-11T06:41:09.579Z,100248.06
2023-01-11T06:43:41.794Z,100298.69
2023-01-11T06:46:17.209Z,100300.53
2023-01-11T06:48:45.026Z,100236.31
2023-01-11T06:51:12.682Z,100261.06
2023-01-11T06:53:41.025Z,100297.88
2023-01-11T06:56:11.126Z,100298.56
2023-01-11T06:58:38.755Z,100299.50
2023-01-11T07:01:05.963Z,100277.13
2023-01-11T07:03:33.303Z,100275.16
2023-01-11T07:06:01.984Z,100240.84
2023-01-11T07:08:28.857Z,100269.31
2023-01-11T07:10:56.036Z,100250.53
2023-01-11T07:13:23.336Z,100277.38
2023-01-11T07:15:51.888Z,100226.97
2023-01-11T07:18:19.899Z,100204.44
2023-01-11T07:20:46.933Z,100230.06
2023-01-11T07:23:14.199Z,100253.97
2023-01-11T07:25:41.375Z,100288.97
2023-01-11T07:28:09.131Z,100259.09
2023-01-11T07:30:55.366Z,100272.28
2023-01-11T07:33:24.501Z,100287.22
2023-01-11T07:35:51.445Z,100216.91
2023-01-11T07:38:18.284Z,100260.47
2023-01-11T07:40:47.282Z,100255.97
2023-01-11T07:43:15.273Z,100278.56
2023-01-11T07:45:46.676Z,100289.28
2023-01-11T07:48:15.147Z,100302.66
2023-01-11T07:50:44.733Z,100274.69
2023-01-11T07:53:12.804Z,100282.31
2023-01-11T07:55:40.478Z,100227.63
2023-01-11T07:58:08.996Z,100272.84
2023-01-11T08:00:36.838Z,100282.13
2023-01-11T08:03:03.794Z,100288.00
2023-01-11T08:05:30.883Z,100278.28
2023-01-11T08:07:57.990Z,100305.34
2023-01-11T08:10:24.947Z,100242.69
2023-01-11T08:13:10.592Z,100222.00
2023-01-11T08:15:38.048Z,100275.94
2023-01-11T08:18:06.000Z,100224.47
2023-01-11T08:20:33.272Z,100242.69
2023-01-11T08:23:05.169Z,100239.38
2023-01-11T08:25:33.513Z,100262.38
2023-01-11T08:28:05.365Z,100280.91
2023-01-11T08:30:32.584Z,100297.22
2023-01-11T08:33:01.360Z,100274.78
2023-01-11T08:35:28.471Z,100259.69
2023-01-11T08:37:55.354Z,100232.09
2023-01-11T08:40:24.119Z,100257.22
2023-01-11T08:42:56.774Z,100245.66
2023-01-11T08:45:24.511Z,100246.06
2023-01-11T08:47:52.282Z,100259.53
2023-01-11T08:50:19.676Z,100221.69
2023-01-11T08:52:47.691Z,100231.66
2023-01-11T08:55:14.649Z,100192.91
2023-01-11T08:57:41.520Z,100181.13
2023-01-11T09:00:09.394Z,100219.56
2023-01-11T09:02:37.795Z,100197.63
2023-01-11T09:05:05.243Z,100160.28
2023-01-11T09:07:32.188Z,100146.19
2023-01-11T09:09:58.993Z,100156.00
2023-01-11T09:12:27.282Z,100172.59
2023-01-11T09:14:54.172Z,100114.50
2023-01-11T09:17:21.012Z,100147.53
2023-01-11T09:19:47.789Z,100139.53
2023-01-11T09:22:14.954Z,100169.22
2023-01-11T09:24:41.773Z,100120.75
2023-01-11T09:27:08.664Z,100122.59
2023-01-11T09:29:37.531Z,100158.94
2023-01-11T09:32:05.081Z,100341.22
2023-01-11T09:34:32.060Z,100297.13
2023-01-11T09:37:00.871Z,100266.38
2023-01-11T09:39:28.993Z,100312.91
2023-01-11T09:42:07.714Z,100268.63
2023-01-11T09:44:51.233Z,100224.66
2023-01-11T09:47:22.021Z,100211.78
2023-01-11T09:49:56.263Z,100197.06
2023-01-11T09:52:26.420Z,100213.94
2023-01-11T09:54:53.229Z,100178.94
2023-01-11T09:57:58.567Z,100222.09
2023-01-11T10:00:37.403Z,100221.53
2023-01-11T10:03:11.308Z,100230.41
2023-01-11T10:05:46.461Z,100263.22
2023-01-11T10:18:22.038Z,100353.34
2023-01-11T10:18:31.763Z,100308.09
2023-01-11T10:20:25.063Z,100282.13
2023-01-11T10:22:58.091Z,100292.69
2023-01-11T10:25:33.821Z,100294.00
2023-01-11T10:28:31.655Z,100290.72
2023-01-11T10:30:58.863Z,100268.38
2023-01-11T10:34:06.169Z,100277.28
2023-01-11T10:37:09.417Z,100281.75
2023-01-11T10:40:29.031Z,100289.44
2023-01-11T10:43:22.701Z,100302.31
2023-01-11T10:45:53.492Z,100249.25
2023-01-11T10:48:36.852Z,100227.34
2023-01-11T10:51:24.832Z,100264.75
2023-01-11T10:54:00.961Z,100267.38
2023-01-11T10:56:33.737Z,100246.66
2023-01-11T10:59:27.353Z,100238.69
2023-01-11T11:02:09.278Z,100279.69
2023-01-11T11:04:45.437Z,100266.69
2023-01-11T11:07:21.528Z,100293.47
2023-01-11T11:10:00.917Z,100309.34
2023-01-11T11:12:31.320Z,100269.88
2023-01-11T11:15:09.425Z,100261.00
2023-01-11T11:17:39.910Z,100315.59
2023-01-11T11:20:18.893Z,100258.66
2023-01-11T11:22:45.902Z,100227.81
2023-01-11T11:25:20.676Z,100249.22
2023-01-11T11:27:52.458Z,100278.47
2023-01-11T11:30:38.652Z,100262.38
2023-01-11T11:33:20.758Z,100273.72
2023-01-11T11:36:04.937Z,100269.16
2023-01-11T11:38:34.793Z,100268.44
2023-01-11T11:41:04.815Z,100287.31
2023-01-11T11:43:33.820Z,100296.09
2023-01-11T11:46:03.898Z,100297.44
2023-01-11T11:48:33.599Z,100269.31
2023-01-11T11:51:07.479Z,100280.22
2023-01-11T11:53:56.152Z,100269.63
2023-01-11T11:56:35.975Z,100256.50
2023-01-11T11:59:09.498Z,100273.13
2023-01-11T12:01:40.146Z,100276.19
2023-01-11T12:04:13.001Z,100298.25
2023-01-11T12:06:41.315Z,100274.09
2023-01-11T12:09:28.745Z,100296.91
2023-01-11T12:11:56.525Z,100307.78
2023-01-11T12:14:28.042Z,100269.72
2023-01-11T12:16:54.988Z,100296.91
2023-01-11T12:19:48.112Z,100287.16
2023-01-11T12:22:23.569Z,100246.16
2023-01-11T12:25:25.081Z,100287.91
2023-01-11T12:28:00.670Z,100311.13
2023-01-11T12:30:39.232Z,100294.22
2023-01-11T12:33:24.280Z,100323.03
2023-01-11T12:36:24.111Z,100342.19
2023-01-11T12:39:18.259Z,100346.00
2023-01-11T12:42:04.046Z,100325.13
2023-01-11T12:44:30.830Z,100335.41
2023-01-11T12:47:07.029Z,100298.94
2023-01-11T12:49:58.683Z,100358.72
2023-01-11T12:52:39.480Z,100314.00
2023-01-11T12:55:26.555Z,100321.84
2023-01-11T12:58:00.649Z,100361.59
2023-01-11T13:00:45.257Z,100341.88
2023-01-11T13:03:38.540Z,100353.66
2023-01-11T13:06:08.173Z,100351.94
2023-01-11T13:08:55.825Z,100352.75
2023-01-11T13:11:42.915Z,100355.53
2023-01-11T13:14:31.130Z,100352.69
2023-01-11T13:17:15.993Z,100353.66
2023-01-11T13:19:54.601Z,100364.78
2023-01-11T13:22:25.981Z,100313.56
2023-01-11T13:24:52.644Z,100378.13
2023-01-11T13:27:24.763Z,100343.16
2023-01-11T13:29:55.854Z,100332.63
2023-01-11T13:32:27.559Z,100331.38
2023-01-11T13:35:06.679Z,100366.91
2023-01-11T13:37:43.147Z,100324.00
2023-01-11T13:40:17.887Z,100365.97
2023-01-11T13:42:53.216Z,100320.84
2023-01-11T13:45:30.579Z,100342.81
2023-01-11T13:48:06.182Z,100331.28
2023-01-11T13:50:43.323Z,100355.59
2023-01-11T13:53:40.735Z,100346.59
2023-01-11T13:56:19.097Z,100342.56
2023-01-11T13:58:53.079Z,100373.06
2023-01-11T14:01:33.355Z,100330.59
2023-01-11T14:04:08.533Z,100337.19
2023-01-11T14:06:45.396Z,100366.25
2023-01-11T14:09:37.877Z,100369.00
2023-01-11T14:12:14.014Z,100337.59
2023-01-11T14:14:53.146Z,100358.50
2023-01-11T14:17:51.467Z,100350.81
2023-01-11T14:20:28.428Z,100344.19
2023-01-11T14:23:32.606Z,100347.78
2023-01-11T14:26:17.983Z,100372.59
2023-01-11T14:29:03.171Z,100369.69
2023-01-11T14:31:49.849Z,100368.34
2023-01-11T14:34:34.929Z,100342.28
2023-01-11T14:37:36.217Z,100370.03
2023-01-11T14:40:06.091Z,100372.56
2023-01-11T14:42:39.132Z,100378.44
2023-01-11T14:45:24.755Z,100364.47
2023-01-11T14:48:23.748Z,100381.22
2023-01-11T14:51:09.194Z,100364.97
2023-01-11T14:53:46.750Z,100347.28
2023-01-11T14:56:37.536Z,100356.63
2023-01-11T14:59:23.017Z,100331.63
2023-01-11T15:02:05.354Z,100344.16
2023-01-11T15:04:38.027Z,100313.00
2023-01-11T15:07:30.388Z,100343.97
2023-01-11T15:09:59.572Z,100350.88
2023-01-11T15:12:38.145Z,100285.47
2023-01-11T15:15:17.745Z,100341.22
2023-01-11T15:18:03.651Z,100333.88
2023-01-11T15:20:31.087Z,100298.44
2023-01-11T15:23:04.067Z,100311.03
2023-01-11T15:25:34.180Z,100342.91
2023-01-11T15:28:05.119Z,100291.28
2023-01-11T15:30:31.911Z,100323.00
2023-01-11T15:33:17.520Z,100328.22
2023-01-11T15:35:56.438Z,100333.41
2023-01-11T15:39:00.259Z,100329.00
2023-01-11T15:42:04.765Z,100332.59
2023-01-11T15:44:53.329Z,100320.47
2023-01-11T15:47:44.909Z,100303.13
2023-01-11T15:50:29.991Z,100336.38
2023-01-11T15:53:18.156Z,100327.06
2023-01-11T15:56:17.363Z,100321.84
2023-01-11T15:59:21.475Z,100324.28
2023-01-11T16:02:14.489Z,100322.66
2023-01-11T16:04:46.926Z,100328.47
2023-01-11T16:07:33.916Z,100276.28
2023-01-11T16:10:35.816Z,100304.31
2023-01-11T16:13:21.442Z,100322.59
2023-01-11T16:16:00.252Z,100330.25
2023-01-11T16:18:34.375Z,100293.53
2023-01-11T16:21:07.569Z,100257.06
2023-01-11T16:23:35.531Z,100266.25
2023-01-11T16:26:03.128Z,100254.28
2023-01-11T16:28:29.921Z,100296.97
2023-01-11T16:31:05.977Z,100305.50
2023-01-11T16:33:35.049Z,100256.28
2023-01-11T16:36:07.978Z,100286.94
2023-01-11T16:38:47.117Z,100244.47
2023-01-11T16:41:16.104Z,100269.84
2023-01-11T16:44:03.167Z,100248.03
2023-01-11T16:46:55.800Z,100267.38
2023-01-11T16:49:22.532Z,100200.44
2023-01-11T16:51:49.551Z,100249.59
2023-01-11T16:54:24.382Z,100218.03
2023-01-11T16:56:51.485Z,100242.91
2023-01-11T16:59:29.289Z,100206.22
2023-01-11T17:01:59.173Z,100178.28
2023-01-11T17:04:38.139Z,100172.13
2023-01-11T17:07:26.630Z,100211.56
2023-01-11T17:09:53.797Z,100185.97
2023-01-11T17:12:25.978Z,100185.81
2023-01-11T17:15:04.062Z,100206.81
2023-01-11T17:17:37.418Z,100202.44
2023-01-11T17:20:15.884Z,100163.59
2023-01-11T17:22:44.066Z,100134.78
2023-01-11T17:25:24.928Z,100123.06
2023-01-11T17:28:19.632Z,100122.13
2023-01-11T17:30:50.711Z,100103.44
2023-01-11T17:33:32.090Z,100141.88
2023-01-11T17:36:00.209Z,100093.22
2023-01-11T17:38:28.292Z,100137.66
2023-01-11T17:40:58.840Z,100075.09
2023-01-11T17:43:48.757Z,100097.69
2023-01-11T17:46:22.883Z,100085.94
2023-01-11T17:49:00.180Z,100104.81
2023-01-11T17:51:29.719Z,100090.25
2023-01-11T17:53:56.559Z,100034.41
2023-01-11T17:56:32.553Z,100089.53
2023-01-11T17:59:18.405Z,100027.81
2023-01-11T18:01:50.574Z,100059.28
2023-01-11T18:04:20.006Z,100043.06
2023-01-11T18:06:48.924Z,100028.84
2023-01-11T18:09:22.403Z,100055.03
2023-01-11T18:11:51.335Z,100004.56
2023-01-11T18:14:29.800Z,100028.09
2023-01-11T18:17:07.234Z,99993.13
2023-01-11T18:19:40.227Z,100017.03
2023-01-11T18:22:40.687Z,99996.75
2023-01-11T18:25:20.152Z,99966.22
2023-01-11T18:27:47.812Z,99924.53
2023-01-11T18:30:32.942Z,99938.28
2023-01-11T18:33:02.251Z,99910.44
2023-01-11T18:35:30.061Z,99864.50
2023-01-11T18:37:57.108Z,99842.13
2023-01-11T18:40:23.872Z,99864.72
2023-01-11T18:42:53.961Z,99860.13
2023-01-11T18:45:22.101Z,99843.81
2023-01-11T18:47:48.847Z,99833.16
2023-01-11T18:50:18.079Z,99828.22
2023-01-11T18:52:46.272Z,99809.38
2023-01-11T18:55:14.686Z,99821.97
2023-01-11T18:57:42.523Z,99789.28
2023-01-11T19:00:14.119Z,99800.28
2023-01-11T19:02:43.293Z,99785.44
2023-01-11T19:05:14.779Z,99760.97
2023-01-11T19:07:41.462Z,99761.91
2023-01-11T19:10:08.741Z,99759.59
2023-01-11T19:12:36.089Z,99763.56
2023-01-11T19:15:02.884Z,99709.53
2023-01-11T19:17:31.728Z,99715.28
2023-01-11T19:19:58.895Z,99740.91
2023-01-11T19:22:26.733Z,99732.81
2023-01-11T19:24:55.001Z,99729.56
2023-01-11T19:27:22.454Z,99685.47
2023-01-11T19:29:49.236Z,99669.69
2023-01-11T19:32:17.443Z,99691.28
2023-01-11T19:34:44.334Z,99686.19
2023-01-11T19:37:11.169Z,99672.59
2023-01-11T19:39:40.190Z,99653.19
2023-01-11T19:42:07.242Z,99634.84
2023-01-11T19:44:36.285Z,99671.31
2023-01-11T19:47:12.814Z,99676.72
2023-01-11T19:49:41.301Z,99682.97
2023-01-11T19:52:13.272Z,99682.28
2023-01-11T19:54:44.363Z,99686.88
2023-01-11T19:57:19.039Z,99678.66
2023-01-11T19:59:46.521Z,99666.03
2023-01-11T20:02:15.443Z,99647.19
2023-01-11T20:04:42.583Z,99670.59
2023-01-11T20:07:10.864Z,99646.91
2023-01-11T20:09:38.927Z,99677.16
2023-01-11T20:12:07.026Z,99682.91
2023-01-11T20:14:34.451Z,99676.94
2023-01-11T20:17:01.568Z,99647.28
2023-01-11T20:19:28.524Z,99656.53
2023-01-11T20:21:56.464Z,99663.09
2023-01-11T20:24:29.921Z,99689.09
2023-01-11T20:26:58.865Z,99660.22
2023-01-11T20:29:26.105Z,99655.94
2023-01-11T20:31:52.965Z,99670.47
2023-01-11T20:34:19.954Z,99665.09
2023-01-11T20:36:48.112Z,99661.13
2023-01-11T20:39:15.028Z,99662.59
2023-01-11T20:41:47.857Z,99663.63
2023-01-11T20:44:25.792Z,99667.09
2023-01-11T20:46:53.843Z,99654.66
2023-01-11T20:49:23.663Z,99608.34
2023-01-11T20:51:50.581Z,99652.03
2023-01-11T20:54:17.796Z,99648.69
2023-01-11T20:56:46.668Z,99632.59
2023-01-11T20:59:17.590Z,99645.38
2023-01-11T21:01:44.426Z,99645.84
2023-01-11T21:04:12.573Z,99675.88
2023-01-11T21:06:42.153Z,99647.31
2023-01-11T21:09:11.110Z,99672.09
2023-01-11T21:14:04.965Z,99668.75
2023-01-11T21:16:31.972Z,99674.25
2023-01-11T21:19:01.218Z,99707.38
2023-01-11T21:21:30.737Z,99658.03
2023-01-11T21:24:00.330Z,99707.97
2023-01-11T21:26:28.628Z,99717.63
2023-01-11T21:29:01.311Z,99721.69
2023-01-11T21:31:30.256Z,99740.19
2023-01-11T21:33:58.443Z,99734.22
2023-01-11T21:36:27.067Z,99693.50
2023-01-11T21:38:55.363Z,99738.44
2023-01-11T21:41:43.556Z,99734.13
2023-01-11T21:44:12.802Z,99729.63
2023-01-11T21:46:40.104Z,99736.16
2023-01-11T21:49:07.267Z,99726.75
2023-01-11T21:51:35.262Z,99720.56
2023-01-11T21:54:11.551Z,99719.81
2023-01-11T21:56:39.041Z,99729.25
2023-01-11T21:59:05.875Z,99747.28
2023-01-11T22:01:32.731Z,99716.63
2023-01-11T22:03:59.817Z,99751.91
2023-01-11T22:06:26.646Z,99755.97
2023-01-11T22:08:53.722Z,99743.22
2023-01-11T22:11:20.571Z,99744.22
2023-01-11T22:13:47.335Z,99748.72
2023-01-11T22:16:16.939Z,99736.09
2023-01-11T22:18:45.275Z,99736.91
2023-01-11T22:21:18.095Z,99770.78
2023-01-11T22:23:46.966Z,99776.41
2023-01-11T22:26:16.736Z,99758.84
2023-01-11T22:29:03.926Z,99736.78
2023-01-11T22:31:31.753Z,99794.75
2023-01-11T22:33:59.407Z,99795.72
2023-01-11T22:36:27.578Z,99781.97
2023-01-11T22:38:54.567Z,99807.97
2023-01-11T22:41:22.675Z,99817.75
2023-01-11T22:43:49.823Z,99807.88
2023-01-11T22:46:21.911Z,99796.28
2023-01-11T22:48:49.736Z,99812.16
2023-01-11T22:51:18.657Z,99819.91
2023-01-11T22:53:47.364Z,99826.72
2023-01-11T22:56:18.971Z,99807.94
2023-01-11T22:58:46.881Z,99812.16
2023-01-11T23:01:16.428Z,99826.09
2023-01-11T23:03:43.786Z,99818.81
2023-01-11T23:06:10.814Z,99839.31
2023-01-11T23:08:40.946Z,99834.28
2023-01-11T23:11:37.470Z,99838.31
2023-01-11T23:14:06.038Z,99808.69
2023-01-11T23:16:33.772Z,99847.38
2023-01-11T23:19:00.957Z,99846.38
2023-01-11T23:21:28.172Z,99853.06
2023-01-11T23:23:55.002Z,99855.19
2023-01-11T23:26:22.184Z,99831.50
2023-01-11T23:28:50.495Z,99863.16
2023-01-11T23:31:20.203Z,99850.03
2023-01-11T23:33:49.240Z,99860.19
2023-01-11T23:36:17.303Z,99857.06
2023-01-11T23:38:44.285Z,99869.53
2023-01-11T23:41:34.722Z,99836.94
2023-01-11T23:44:04.119Z,99867.47
2023-01-11T23:46:49.915Z,99867.38
2023-01-11T23:49:16.828Z,99862.91
2023-01-11T23:51:43.806Z,99881.31
2023-01-11T23:54:11.117Z,99863.84
2023-01-11T23:56:38.480Z,99867.69
2023-01-11T23:59:06.826Z,99878.19
